sensor_id;sensor_type;location;lat;lon;timestamp;P1;durP1;ratioP1;P2;durP2;ratioP2
2868;SDS011;1442;47.448;8.582;2022-07-05T00:01:08;3.03;;;1.50;;
2868;SDS011;1442;47.448;8.582;2022-07-05T00:03:35;2.97;;;1.23;;
2868;SDS011;1442;47.448;8.582;2022-07-05T00:06:02;4.07;;;1.27;;
2868;SDS011;1442;47.448;8.582;2022-07-05T00:08:31;2.95;;;1.17;;
2868;SDS011;1442;47.448;8.582;2022-07-05T00:10:58;6.32;;;1.08;;
2868;SDS011;1442;47.448;8.582;2022-07-05T00:13:25;4.88;;;1.27;;
2868;SDS011;1442;47.448;8.582;2022-07-05T00:15:52;3.70;;;1.42;;
2868;SDS011;1442;47.448;8.582;2022-07-05T00:18:19;4.78;;;1.45;;
2868;SDS011;1442;47.448;8.582;2022-07-05T00:20:46;2.92;;;1.15;;
2868;SDS011;1442;47.448;8.582;2022-07-05T00:23:13;1.25;;;1.08;;
2868;SDS011;1442;47.448;8.582;2022-07-05T00:25:41;3.28;;;1.20;;
2868;SDS011;1442;47.448;8.582;2022-07-05T00:28:09;3.60;;;1.10;;
2868;SDS011;1442;47.448;8.582;2022-07-05T00:30:38;1.48;;;1.33;;
2868;SDS011;1442;47.448;8.582;2022-07-05T00:33:05;4.53;;;1.20;;
2868;SDS011;1442;47.448;8.582;2022-07-05T00:35:32;1.65;;;1.13;;
2868;SDS011;1442;47.448;8.582;2022-07-05T00:37:59;6.80;;;1.10;;
2868;SDS011;1442;47.448;8.582;2022-07-05T00:40:26;2.88;;;1.02;;
2868;SDS011;1442;47.448;8.582;2022-07-05T00:42:54;3.33;;;1.80;;
2868;SDS011;1442;47.448;8.582;2022-07-05T00:45:21;4.38;;;1.30;;
2868;SDS011;1442;47.448;8.582;2022-07-05T00:47:49;2.92;;;1.38;;
2868;SDS011;1442;47.448;8.582;2022-07-05T00:50:16;2.72;;;1.23;;
2868;SDS011;1442;47.448;8.582;2022-07-05T00:52:43;1.98;;;1.35;;
2868;SDS011;1442;47.448;8.582;2022-07-05T00:55:10;5.95;;;1.27;;
2868;SDS011;1442;47.448;8.582;2022-07-05T00:57:37;3.35;;;1.02;;
2868;SDS011;1442;47.448;8.582;2022-07-05T01:00:06;5.82;;;1.75;;
2868;SDS011;1442;47.448;8.582;2022-07-05T01:02:34;2.22;;;1.35;;
2868;SDS011;1442;47.448;8.582;2022-07-05T01:05:01;9.25;;;1.73;;
2868;SDS011;1442;47.448;8.582;2022-07-05T01:07:28;4.65;;;1.42;;
2868;SDS011;1442;47.448;8.582;2022-07-05T01:09:55;6.13;;;1.65;;
2868;SDS011;1442;47.448;8.582;2022-07-05T01:12:23;4.57;;;1.50;;
2868;SDS011;1442;47.448;8.582;2022-07-05T01:14:50;2.70;;;1.33;;
2868;SDS011;1442;47.448;8.582;2022-07-05T01:17:19;4.43;;;1.63;;
2868;SDS011;1442;47.448;8.582;2022-07-05T01:19:47;3.17;;;1.48;;
2868;SDS011;1442;47.448;8.582;2022-07-05T01:22:15;3.50;;;1.88;;
2868;SDS011;1442;47.448;8.582;2022-07-05T01:24:45;7.07;;;1.27;;
2868;SDS011;1442;47.448;8.582;2022-07-05T01:27:12;1.55;;;1.45;;
2868;SDS011;1442;47.448;8.582;2022-07-05T01:29:40;4.35;;;1.40;;
2868;SDS011;1442;47.448;8.582;2022-07-05T01:32:07;6.05;;;1.52;;
2868;SDS011;1442;47.448;8.582;2022-07-05T01:34:36;6.95;;;1.40;;
2868;SDS011;1442;47.448;8.582;2022-07-05T01:37:04;7.88;;;1.35;;
2868;SDS011;1442;47.448;8.582;2022-07-05T01:39:31;4.50;;;2.13;;
2868;SDS011;1442;47.448;8.582;2022-07-05T01:41:59;3.15;;;1.55;;
2868;SDS011;1442;47.448;8.582;2022-07-05T01:44:27;4.72;;;1.80;;
2868;SDS011;1442;47.448;8.582;2022-07-05T01:46:55;3.42;;;1.40;;
2868;SDS011;1442;47.448;8.582;2022-07-05T01:49:25;2.38;;;1.52;;
2868;SDS011;1442;47.448;8.582;2022-07-05T01:51:54;4.07;;;1.85;;
2868;SDS011;1442;47.448;8.582;2022-07-05T01:54:24;5.75;;;1.55;;
2868;SDS011;1442;47.448;8.582;2022-07-05T01:56:51;1.85;;;1.40;;
2868;SDS011;1442;47.448;8.582;2022-07-05T01:59:19;3.25;;;1.40;;
2868;SDS011;1442;47.448;8.582;2022-07-05T02:01:47;7.50;;;1.60;;
2868;SDS011;1442;47.448;8.582;2022-07-05T02:04:14;1.30;;;1.15;;
2868;SDS011;1442;47.448;8.582;2022-07-05T02:06:41;10.38;;;1.88;;
2868;SDS011;1442;47.448;8.582;2022-07-05T02:09:10;2.85;;;1.85;;
2868;SDS011;1442;47.448;8.582;2022-07-05T02:11:37;2.97;;;1.40;;
2868;SDS011;1442;47.448;8.582;2022-07-05T02:14:04;6.13;;;1.70;;
2868;SDS011;1442;47.448;8.582;2022-07-05T02:16:33;7.45;;;1.90;;
2868;SDS011;1442;47.448;8.582;2022-07-05T02:19:00;6.05;;;1.90;;
2868;SDS011;1442;47.448;8.582;2022-07-05T02:21:27;4.95;;;1.33;;
2868;SDS011;1442;47.448;8.582;2022-07-05T02:23:54;3.70;;;1.70;;
2868;SDS011;1442;47.448;8.582;2022-07-05T02:26:21;3.55;;;1.85;;
2868;SDS011;1442;47.448;8.582;2022-07-05T02:28:48;2.88;;;1.80;;
2868;SDS011;1442;47.448;8.582;2022-07-05T02:31:16;3.22;;;1.42;;
2868;SDS011;1442;47.448;8.582;2022-07-05T02:33:46;7.10;;;1.65;;
2868;SDS011;1442;47.448;8.582;2022-07-05T02:36:13;6.20;;;1.75;;
2868;SDS011;1442;47.448;8.582;2022-07-05T02:38:42;3.35;;;1.98;;
2868;SDS011;1442;47.448;8.582;2022-07-05T02:41:09;7.53;;;1.58;;
2868;SDS011;1442;47.448;8.582;2022-07-05T02:43:38;8.52;;;1.83;;
2868;SDS011;1442;47.448;8.582;2022-07-05T02:46:05;4.15;;;1.90;;
2868;SDS011;1442;47.448;8.582;2022-07-05T02:48:33;5.32;;;1.52;;
2868;SDS011;1442;47.448;8.582;2022-07-05T02:51:02;3.67;;;1.48;;
2868;SDS011;1442;47.448;8.582;2022-07-05T02:53:30;6.28;;;1.88;;
2868;SDS011;1442;47.448;8.582;2022-07-05T02:55:57;5.82;;;1.88;;
2868;SDS011;1442;47.448;8.582;2022-07-05T02:58:24;2.60;;;1.73;;
2868;SDS011;1442;47.448;8.582;2022-07-05T03:00:51;3.50;;;1.75;;
2868;SDS011;1442;47.448;8.582;2022-07-05T03:03:18;3.92;;;1.73;;
2868;SDS011;1442;47.448;8.582;2022-07-05T03:05:45;4.55;;;1.90;;
2868;SDS011;1442;47.448;8.582;2022-07-05T03:08:13;10.82;;;1.70;;
2868;SDS011;1442;47.448;8.582;2022-07-05T03:10:40;4.30;;;1.40;;
2868;SDS011;1442;47.448;8.582;2022-07-05T03:13:08;9.05;;;1.92;;
2868;SDS011;1442;47.448;8.582;2022-07-05T03:15:35;6.50;;;1.80;;
2868;SDS011;1442;47.448;8.582;2022-07-05T03:18:02;7.07;;;1.55;;
2868;SDS011;1442;47.448;8.582;2022-07-05T03:20:29;6.05;;;1.73;;
2868;SDS011;1442;47.448;8.582;2022-07-05T03:22:57;6.22;;;1.88;;
2868;SDS011;1442;47.448;8.582;2022-07-05T03:25:26;7.60;;;2.00;;
2868;SDS011;1442;47.448;8.582;2022-07-05T03:27:53;5.78;;;1.85;;
2868;SDS011;1442;47.448;8.582;2022-07-05T03:30:20;4.80;;;1.83;;
2868;SDS011;1442;47.448;8.582;2022-07-05T03:32:48;9.23;;;2.42;;
2868;SDS011;1442;47.448;8.582;2022-07-05T03:35:15;8.55;;;2.00;;
2868;SDS011;1442;47.448;8.582;2022-07-05T03:37:42;7.72;;;2.00;;
2868;SDS011;1442;47.448;8.582;2022-07-05T03:40:09;4.47;;;1.85;;
2868;SDS011;1442;47.448;8.582;2022-07-05T03:42:38;5.90;;;2.05;;
2868;SDS011;1442;47.448;8.582;2022-07-05T03:45:05;4.15;;;1.80;;
2868;SDS011;1442;47.448;8.582;2022-07-05T03:47:32;2.30;;;1.98;;
2868;SDS011;1442;47.448;8.582;2022-07-05T03:49:59;4.65;;;2.53;;
2868;SDS011;1442;47.448;8.582;2022-07-05T03:52:26;4.20;;;2.20;;
2868;SDS011;1442;47.448;8.582;2022-07-05T03:54:53;6.13;;;1.90;;
2868;SDS011;1442;47.448;8.582;2022-07-05T03:57:21;6.35;;;2.40;;
2868;SDS011;1442;47.448;8.582;2022-07-05T03:59:49;4.30;;;2.40;;
2868;SDS011;1442;47.448;8.582;2022-07-05T04:02:16;6.13;;;3.25;;
2868;SDS011;1442;47.448;8.582;2022-07-05T04:04:43;4.72;;;2.28;;
2868;SDS011;1442;47.448;8.582;2022-07-05T04:07:10;5.68;;;2.55;;
2868;SDS011;1442;47.448;8.582;2022-07-05T04:09:37;6.20;;;3.03;;
2868;SDS011;1442;47.448;8.582;2022-07-05T04:12:05;3.65;;;2.25;;
2868;SDS011;1442;47.448;8.582;2022-07-05T04:14:32;4.65;;;2.40;;
2868;SDS011;1442;47.448;8.582;2022-07-05T04:17:00;4.20;;;2.33;;
2868;SDS011;1442;47.448;8.582;2022-07-05T04:19:27;4.78;;;2.08;;
2868;SDS011;1442;47.448;8.582;2022-07-05T04:21:55;7.43;;;2.25;;
2868;SDS011;1442;47.448;8.582;2022-07-05T04:24:22;4.80;;;2.58;;
2868;SDS011;1442;47.448;8.582;2022-07-05T04:26:49;5.53;;;2.05;;
2868;SDS011;1442;47.448;8.582;2022-07-05T04:29:17;6.30;;;2.40;;
2868;SDS011;1442;47.448;8.582;2022-07-05T04:31:44;2.88;;;1.83;;
2868;SDS011;1442;47.448;8.582;2022-07-05T04:34:12;4.95;;;1.90;;
2868;SDS011;1442;47.448;8.582;2022-07-05T04:36:39;3.90;;;1.90;;
2868;SDS011;1442;47.448;8.582;2022-07-05T04:39:07;12.75;;;2.20;;
2868;SDS011;1442;47.448;8.582;2022-07-05T04:41:34;4.45;;;1.90;;
2868;SDS011;1442;47.448;8.582;2022-07-05T04:44:01;3.90;;;1.70;;
2868;SDS011;1442;47.448;8.582;2022-07-05T04:46:29;4.97;;;2.05;;
2868;SDS011;1442;47.448;8.582;2022-07-05T04:48:56;3.85;;;2.05;;
2868;SDS011;1442;47.448;8.582;2022-07-05T04:51:24;3.15;;;1.50;;
2868;SDS011;1442;47.448;8.582;2022-07-05T04:53:52;6.38;;;2.20;;
2868;SDS011;1442;47.448;8.582;2022-07-05T04:56:21;5.78;;;2.30;;
2868;SDS011;1442;47.448;8.582;2022-07-05T04:58:48;6.53;;;1.95;;
2868;SDS011;1442;47.448;8.582;2022-07-05T05:01:15;5.68;;;1.80;;
2868;SDS011;1442;47.448;8.582;2022-07-05T05:03:42;4.78;;;1.90;;
2868;SDS011;1442;47.448;8.582;2022-07-05T05:06:09;3.78;;;1.70;;
2868;SDS011;1442;47.448;8.582;2022-07-05T05:08:39;4.78;;;2.03;;
2868;SDS011;1442;47.448;8.582;2022-07-05T05:11:07;11.73;;;2.47;;
2868;SDS011;1442;47.448;8.582;2022-07-05T05:13:34;7.22;;;2.38;;
2868;SDS011;1442;47.448;8.582;2022-07-05T05:16:02;6.97;;;2.10;;
2868;SDS011;1442;47.448;8.582;2022-07-05T05:18:29;3.90;;;2.00;;
2868;SDS011;1442;47.448;8.582;2022-07-05T05:20:56;8.43;;;2.80;;
2868;SDS011;1442;47.448;8.582;2022-07-05T05:23:23;4.57;;;2.58;;
2868;SDS011;1442;47.448;8.582;2022-07-05T05:25:52;7.18;;;2.15;;
2868;SDS011;1442;47.448;8.582;2022-07-05T05:28:19;5.13;;;2.22;;
2868;SDS011;1442;47.448;8.582;2022-07-05T05:30:46;2.67;;;2.20;;
2868;SDS011;1442;47.448;8.582;2022-07-05T05:33:13;4.85;;;2.13;;
2868;SDS011;1442;47.448;8.582;2022-07-05T05:35:40;3.72;;;2.22;;
2868;SDS011;1442;47.448;8.582;2022-07-05T05:38:07;3.55;;;2.00;;
2868;SDS011;1442;47.448;8.582;2022-07-05T05:40:35;3.72;;;2.40;;
2868;SDS011;1442;47.448;8.582;2022-07-05T05:43:04;2.80;;;1.70;;
2868;SDS011;1442;47.448;8.582;2022-07-05T05:45:31;2.42;;;1.92;;
2868;SDS011;1442;47.448;8.582;2022-07-05T05:47:58;7.28;;;2.47;;
2868;SDS011;1442;47.448;8.582;2022-07-05T05:50:26;7.72;;;2.50;;
2868;SDS011;1442;47.448;8.582;2022-07-05T05:52:54;2.63;;;2.38;;
2868;SDS011;1442;47.448;8.582;2022-07-05T05:55:22;2.85;;;2.08;;
2868;SDS011;1442;47.448;8.582;2022-07-05T05:57:49;5.38;;;2.10;;
2868;SDS011;1442;47.448;8.582;2022-07-05T06:00:18;7.20;;;2.10;;
2868;SDS011;1442;47.448;8.582;2022-07-05T06:02:46;2.53;;;1.88;;
2868;SDS011;1442;47.448;8.582;2022-07-05T06:05:14;3.95;;;2.30;;
2868;SDS011;1442;47.448;8.582;2022-07-05T06:07:45;12.32;;;5.38;;
2868;SDS011;1442;47.448;8.582;2022-07-05T06:10:14;9.17;;;4.70;;
2868;SDS011;1442;47.448;8.582;2022-07-05T06:12:41;6.60;;;2.70;;
2868;SDS011;1442;47.448;8.582;2022-07-05T06:15:09;3.05;;;2.25;;
2868;SDS011;1442;47.448;8.582;2022-07-05T06:17:37;4.03;;;1.90;;
2868;SDS011;1442;47.448;8.582;2022-07-05T06:20:05;4.57;;;2.00;;
2868;SDS011;1442;47.448;8.582;2022-07-05T06:22:33;4.88;;;2.38;;
2868;SDS011;1442;47.448;8.582;2022-07-05T06:25:00;3.47;;;2.28;;
2868;SDS011;1442;47.448;8.582;2022-07-05T06:27:27;3.92;;;2.40;;
2868;SDS011;1442;47.448;8.582;2022-07-05T06:29:54;7.72;;;2.25;;
2868;SDS011;1442;47.448;8.582;2022-07-05T06:32:21;4.03;;;2.13;;
2868;SDS011;1442;47.448;8.582;2022-07-05T06:34:50;2.13;;;1.92;;
2868;SDS011;1442;47.448;8.582;2022-07-05T06:37:17;5.03;;;2.15;;
2868;SDS011;1442;47.448;8.582;2022-07-05T06:39:44;3.58;;;2.10;;
2868;SDS011;1442;47.448;8.582;2022-07-05T06:42:11;5.38;;;2.22;;
2868;SDS011;1442;47.448;8.582;2022-07-05T06:44:39;5.35;;;2.17;;
2868;SDS011;1442;47.448;8.582;2022-07-05T06:47:06;4.53;;;2.00;;
2868;SDS011;1442;47.448;8.582;2022-07-05T06:49:33;4.57;;;2.08;;
2868;SDS011;1442;47.448;8.582;2022-07-05T06:52:02;8.90;;;2.53;;
2868;SDS011;1442;47.448;8.582;2022-07-05T06:54:29;4.55;;;2.40;;
2868;SDS011;1442;47.448;8.582;2022-07-05T06:56:56;3.40;;;2.00;;
2868;SDS011;1442;47.448;8.582;2022-07-05T06:59:24;3.67;;;2.40;;
2868;SDS011;1442;47.448;8.582;2022-07-05T07:01:51;6.20;;;2.40;;
2868;SDS011;1442;47.448;8.582;2022-07-05T07:04:18;5.68;;;2.28;;
2868;SDS011;1442;47.448;8.582;2022-07-05T07:06:45;6.03;;;2.22;;
2868;SDS011;1442;47.448;8.582;2022-07-05T07:09:13;3.55;;;2.17;;
2868;SDS011;1442;47.448;8.582;2022-07-05T07:11:47;2.35;;;1.95;;
2868;SDS011;1442;47.448;8.582;2022-07-05T07:14:15;4.55;;;2.38;;
2868;SDS011;1442;47.448;8.582;2022-07-05T07:16:42;3.30;;;2.28;;
2868;SDS011;1442;47.448;8.582;2022-07-05T07:19:09;5.13;;;2.10;;
2868;SDS011;1442;47.448;8.582;2022-07-05T07:21:37;11.55;;;2.53;;
2868;SDS011;1442;47.448;8.582;2022-07-05T07:24:04;5.72;;;2.67;;
2868;SDS011;1442;47.448;8.582;2022-07-05T07:26:33;4.43;;;2.03;;
2868;SDS011;1442;47.448;8.582;2022-07-05T07:29:25;4.65;;;2.08;;
2868;SDS011;1442;47.448;8.582;2022-07-05T07:31:52;6.10;;;2.15;;
2868;SDS011;1442;47.448;8.582;2022-07-05T07:34:19;3.97;;;2.20;;
2868;SDS011;1442;47.448;8.582;2022-07-05T07:36:47;4.82;;;2.45;;
2868;SDS011;1442;47.448;8.582;2022-07-05T07:39:14;3.17;;;2.05;;
2868;SDS011;1442;47.448;8.582;2022-07-05T07:41:42;4.03;;;2.38;;
2868;SDS011;1442;47.448;8.582;2022-07-05T07:44:09;4.10;;;2.20;;
2868;SDS011;1442;47.448;8.582;2022-07-05T07:46:37;5.72;;;2.55;;
2868;SDS011;1442;47.448;8.582;2022-07-05T07:49:05;4.10;;;2.88;;
2868;SDS011;1442;47.448;8.582;2022-07-05T07:51:32;7.55;;;2.85;;
2868;SDS011;1442;47.448;8.582;2022-07-05T07:53:59;5.20;;;2.22;;
2868;SDS011;1442;47.448;8.582;2022-07-05T07:56:26;8.20;;;1.60;;
2868;SDS011;1442;47.448;8.582;2022-07-05T07:58:55;4.00;;;1.50;;
2868;SDS011;1442;47.448;8.582;2022-07-05T08:01:22;3.83;;;1.90;;
2868;SDS011;1442;47.448;8.582;2022-07-05T08:03:49;7.30;;;1.85;;
2868;SDS011;1442;47.448;8.582;2022-07-05T08:06:16;5.32;;;2.30;;
2868;SDS011;1442;47.448;8.582;2022-07-05T08:08:44;4.50;;;1.60;;
2868;SDS011;1442;47.448;8.582;2022-07-05T08:11:12;4.03;;;1.85;;
2868;SDS011;1442;47.448;8.582;2022-07-05T08:13:39;5.63;;;2.40;;
2868;SDS011;1442;47.448;8.582;2022-07-05T08:16:08;4.90;;;2.13;;
2868;SDS011;1442;47.448;8.582;2022-07-05T08:18:36;3.90;;;1.73;;
2868;SDS011;1442;47.448;8.582;2022-07-05T08:21:21;6.72;;;1.65;;
2868;SDS011;1442;47.448;8.582;2022-07-05T08:23:57;3.83;;;1.90;;
2868;SDS011;1442;47.448;8.582;2022-07-05T08:26:25;3.05;;;2.00;;
2868;SDS011;1442;47.448;8.582;2022-07-05T08:28:52;5.03;;;2.25;;
2868;SDS011;1442;47.448;8.582;2022-07-05T08:31:20;3.97;;;2.38;;
2868;SDS011;1442;47.448;8.582;2022-07-05T08:33:48;4.25;;;2.20;;
2868;SDS011;1442;47.448;8.582;2022-07-05T08:36:15;4.03;;;2.13;;
2868;SDS011;1442;47.448;8.582;2022-07-05T08:38:42;3.42;;;2.70;;
2868;SDS011;1442;47.448;8.582;2022-07-05T08:41:09;3.78;;;2.05;;
2868;SDS011;1442;47.448;8.582;2022-07-05T08:43:40;8.10;;;2.95;;
2868;SDS011;1442;47.448;8.582;2022-07-05T08:46:08;4.72;;;2.05;;
2868;SDS011;1442;47.448;8.582;2022-07-05T08:48:37;2.67;;;2.33;;
2868;SDS011;1442;47.448;8.582;2022-07-05T08:51:08;8.30;;;2.50;;
2868;SDS011;1442;47.448;8.582;2022-07-05T08:53:35;3.25;;;2.13;;
2868;SDS011;1442;47.448;8.582;2022-07-05T08:56:03;3.78;;;2.00;;
2868;SDS011;1442;47.448;8.582;2022-07-05T08:58:31;4.72;;;1.92;;
2868;SDS011;1442;47.448;8.582;2022-07-05T09:00:58;5.00;;;1.90;;
2868;SDS011;1442;47.448;8.582;2022-07-05T09:03:26;2.97;;;1.85;;
2868;SDS011;1442;47.448;8.582;2022-07-05T09:05:57;4.45;;;2.17;;
2868;SDS011;1442;47.448;8.582;2022-07-05T09:08:25;7.32;;;1.60;;
2868;SDS011;1442;47.448;8.582;2022-07-05T09:10:52;4.22;;;1.63;;
2868;SDS011;1442;47.448;8.582;2022-07-05T09:13:20;4.72;;;2.00;;
2868;SDS011;1442;47.448;8.582;2022-07-05T09:15:47;5.55;;;1.80;;
2868;SDS011;1442;47.448;8.582;2022-07-05T09:18:25;3.47;;;1.90;;
2868;SDS011;1442;47.448;8.582;2022-07-05T09:21:12;4.88;;;1.30;;
2868;SDS011;1442;47.448;8.582;2022-07-05T09:23:39;2.63;;;1.98;;
2868;SDS011;1442;47.448;8.582;2022-07-05T09:26:07;2.95;;;1.67;;
2868;SDS011;1442;47.448;8.582;2022-07-05T09:28:34;1.88;;;1.70;;
2868;SDS011;1442;47.448;8.582;2022-07-05T09:31:02;3.10;;;1.55;;
2868;SDS011;1442;47.448;8.582;2022-07-05T09:33:29;4.38;;;1.90;;
2868;SDS011;1442;47.448;8.582;2022-07-05T09:35:56;3.15;;;1.60;;
2868;SDS011;1442;47.448;8.582;2022-07-05T09:38:25;6.10;;;1.65;;
2868;SDS011;1442;47.448;8.582;2022-07-05T09:40:53;5.00;;;1.85;;
2868;SDS011;1442;47.448;8.582;2022-07-05T09:43:21;2.42;;;1.50;;
2868;SDS011;1442;47.448;8.582;2022-07-05T09:45:55;4.90;;;1.83;;
2868;SDS011;1442;47.448;8.582;2022-07-05T09:48:22;2.42;;;1.45;;
2868;SDS011;1442;47.448;8.582;2022-07-05T09:50:49;5.70;;;1.80;;
2868;SDS011;1442;47.448;8.582;2022-07-05T09:53:17;7.15;;;1.67;;
2868;SDS011;1442;47.448;8.582;2022-07-05T09:55:50;4.47;;;2.10;;
2868;SDS011;1442;47.448;8.582;2022-07-05T09:58:26;3.35;;;1.95;;
2868;SDS011;1442;47.448;8.582;2022-07-05T10:00:53;4.90;;;2.00;;
2868;SDS011;1442;47.448;8.582;2022-07-05T10:03:20;3.95;;;2.47;;
2868;SDS011;1442;47.448;8.582;2022-07-05T10:05:47;4.82;;;1.90;;
2868;SDS011;1442;47.448;8.582;2022-07-05T10:08:15;2.90;;;1.90;;
2868;SDS011;1442;47.448;8.582;2022-07-05T10:10:43;4.22;;;1.40;;
2868;SDS011;1442;47.448;8.582;2022-07-05T10:13:14;1.88;;;1.60;;
2868;SDS011;1442;47.448;8.582;2022-07-05T10:15:41;3.97;;;2.15;;
2868;SDS011;1442;47.448;8.582;2022-07-05T10:18:10;4.22;;;1.60;;
2868;SDS011;1442;47.448;8.582;2022-07-05T10:20:39;3.05;;;1.70;;
2868;SDS011;1442;47.448;8.582;2022-07-05T10:23:09;5.57;;;1.65;;
2868;SDS011;1442;47.448;8.582;2022-07-05T10:25:38;2.88;;;1.63;;
2868;SDS011;1442;47.448;8.582;2022-07-05T10:28:06;6.22;;;1.77;;
2868;SDS011;1442;47.448;8.582;2022-07-05T10:30:34;2.67;;;1.60;;
2868;SDS011;1442;47.448;8.582;2022-07-05T10:33:02;5.18;;;2.10;;
2868;SDS011;1442;47.448;8.582;2022-07-05T10:35:30;6.43;;;1.30;;
2868;SDS011;1442;47.448;8.582;2022-07-05T10:37:57;5.00;;;1.40;;
2868;SDS011;1442;47.448;8.582;2022-07-05T10:40:25;3.60;;;1.20;;
2868;SDS011;1442;47.448;8.582;2022-07-05T10:42:54;2.53;;;1.27;;
2868;SDS011;1442;47.448;8.582;2022-07-05T10:45:29;3.08;;;1.40;;
2868;SDS011;1442;47.448;8.582;2022-07-05T10:48:13;5.13;;;1.52;;
2868;SDS011;1442;47.448;8.582;2022-07-05T10:50:45;2.42;;;1.70;;
2868;SDS011;1442;47.448;8.582;2022-07-05T10:55:53;4.07;;;1.80;;
2868;SDS011;1442;47.448;8.582;2022-07-05T10:58:21;2.92;;;1.77;;
2868;SDS011;1442;47.448;8.582;2022-07-05T11:00:49;5.65;;;1.50;;
2868;SDS011;1442;47.448;8.582;2022-07-05T11:03:37;3.63;;;2.10;;
2868;SDS011;1442;47.448;8.582;2022-07-05T11:06:04;4.30;;;1.67;;
2868;SDS011;1442;47.448;8.582;2022-07-05T11:08:40;1.80;;;1.27;;
2868;SDS011;1442;47.448;8.582;2022-07-05T11:11:28;2.90;;;1.70;;
2868;SDS011;1442;47.448;8.582;2022-07-05T11:13:55;3.22;;;1.70;;
2868;SDS011;1442;47.448;8.582;2022-07-05T11:16:24;4.53;;;1.58;;
2868;SDS011;1442;47.448;8.582;2022-07-05T11:19:04;3.72;;;1.65;;
2868;SDS011;1442;47.448;8.582;2022-07-05T11:21:32;2.95;;;1.20;;
2868;SDS011;1442;47.448;8.582;2022-07-05T11:26:41;5.28;;;1.50;;
2868;SDS011;1442;47.448;8.582;2022-07-05T11:29:10;3.10;;;1.88;;
2868;SDS011;1442;47.448;8.582;2022-07-05T11:32:04;3.92;;;1.98;;
2868;SDS011;1442;47.448;8.582;2022-07-05T11:34:33;5.78;;;2.00;;
2868;SDS011;1442;47.448;8.582;2022-07-05T11:37:19;5.07;;;1.85;;
2868;SDS011;1442;47.448;8.582;2022-07-05T11:42:30;3.45;;;1.80;;
2868;SDS011;1442;47.448;8.582;2022-07-05T11:44:58;3.30;;;1.70;;
2868;SDS011;1442;47.448;8.582;2022-07-05T11:47:26;5.35;;;1.40;;
2868;SDS011;1442;47.448;8.582;2022-07-05T11:49:55;1.98;;;1.23;;
2868;SDS011;1442;47.448;8.582;2022-07-05T11:52:24;2.00;;;1.60;;
2868;SDS011;1442;47.448;8.582;2022-07-05T11:54:51;4.50;;;1.30;;
2868;SDS011;1442;47.448;8.582;2022-07-05T11:57:19;3.65;;;1.75;;
2868;SDS011;1442;47.448;8.582;2022-07-05T11:59:46;1.77;;;1.60;;
2868;SDS011;1442;47.448;8.582;2022-07-05T12:02:13;5.13;;;1.42;;
2868;SDS011;1442;47.448;8.582;2022-07-05T12:04:41;2.88;;;1.58;;
2868;SDS011;1442;47.448;8.582;2022-07-05T12:07:24;2.55;;;1.35;;
2868;SDS011;1442;47.448;8.582;2022-07-05T12:09:51;4.32;;;1.67;;
2868;SDS011;1442;47.448;8.582;2022-07-05T12:12:36;1.70;;;1.48;;
2868;SDS011;1442;47.448;8.582;2022-07-05T12:15:10;4.07;;;1.80;;
2868;SDS011;1442;47.448;8.582;2022-07-05T12:17:38;3.33;;;2.00;;
2868;SDS011;1442;47.448;8.582;2022-07-05T12:20:06;3.58;;;1.98;;
2868;SDS011;1442;47.448;8.582;2022-07-05T12:22:35;2.85;;;1.60;;
2868;SDS011;1442;47.448;8.582;2022-07-05T12:25:03;4.07;;;1.58;;
2868;SDS011;1442;47.448;8.582;2022-07-05T12:27:31;2.05;;;1.40;;
2868;SDS011;1442;47.448;8.582;2022-07-05T12:29:58;0.93;;;0.93;;
2868;SDS011;1442;47.448;8.582;2022-07-05T12:32:27;4.10;;;1.70;;
2868;SDS011;1442;47.448;8.582;2022-07-05T12:34:55;3.95;;;1.50;;
2868;SDS011;1442;47.448;8.582;2022-07-05T12:37:23;1.42;;;1.33;;
2868;SDS011;1442;47.448;8.582;2022-07-05T12:40:02;5.75;;;1.60;;
2868;SDS011;1442;47.448;8.582;2022-07-05T12:42:29;2.05;;;1.30;;
2868;SDS011;1442;47.448;8.582;2022-07-05T12:45:10;2.00;;;1.23;;
2868;SDS011;1442;47.448;8.582;2022-07-05T12:47:47;3.05;;;1.70;;
2868;SDS011;1442;47.448;8.582;2022-07-05T12:50:14;2.95;;;1.40;;
2868;SDS011;1442;47.448;8.582;2022-07-05T12:52:54;1.58;;;1.48;;
2868;SDS011;1442;47.448;8.582;2022-07-05T12:55:24;2.65;;;1.70;;
2868;SDS011;1442;47.448;8.582;2022-07-05T12:58:11;6.88;;;2.22;;
2868;SDS011;1442;47.448;8.582;2022-07-05T13:00:39;3.45;;;1.67;;
2868;SDS011;1442;47.448;8.582;2022-07-05T13:03:06;8.95;;;1.40;;
2868;SDS011;1442;47.448;8.582;2022-07-05T13:05:33;4.68;;;1.60;;
2868;SDS011;1442;47.448;8.582;2022-07-05T13:08:01;4.43;;;1.35;;
2868;SDS011;1442;47.448;8.582;2022-07-05T13:10:29;3.20;;;1.40;;
2868;SDS011;1442;47.448;8.582;2022-07-05T13:12:58;2.33;;;1.42;;
2868;SDS011;1442;47.448;8.582;2022-07-05T13:15:25;2.80;;;1.73;;
2868;SDS011;1442;47.448;8.582;2022-07-05T13:17:52;2.22;;;1.60;;
2868;SDS011;1442;47.448;8.582;2022-07-05T13:20:19;1.50;;;1.40;;
2868;SDS011;1442;47.448;8.582;2022-07-05T13:22:48;5.32;;;1.65;;
2868;SDS011;1442;47.448;8.582;2022-07-05T13:25:15;2.30;;;1.50;;
2868;SDS011;1442;47.448;8.582;2022-07-05T13:27:43;6.68;;;2.20;;
2868;SDS011;1442;47.448;8.582;2022-07-05T13:30:11;5.63;;;1.38;;
2868;SDS011;1442;47.448;8.582;2022-07-05T13:32:38;3.90;;;1.85;;
2868;SDS011;1442;47.448;8.582;2022-07-05T13:35:06;2.20;;;1.48;;
2868;SDS011;1442;47.448;8.582;2022-07-05T13:37:33;2.88;;;1.52;;
2868;SDS011;1442;47.448;8.582;2022-07-05T13:40:01;4.55;;;1.67;;
2868;SDS011;1442;47.448;8.582;2022-07-05T13:42:28;4.25;;;1.60;;
2868;SDS011;1442;47.448;8.582;2022-07-05T13:44:56;5.32;;;1.50;;
2868;SDS011;1442;47.448;8.582;2022-07-05T13:47:23;4.20;;;1.63;;
2868;SDS011;1442;47.448;8.582;2022-07-05T13:49:50;3.35;;;1.48;;
2868;SDS011;1442;47.448;8.582;2022-07-05T13:52:38;5.03;;;2.00;;
2868;SDS011;1442;47.448;8.582;2022-07-05T13:55:05;4.20;;;1.50;;
2868;SDS011;1442;47.448;8.582;2022-07-05T13:57:33;4.10;;;1.98;;
2868;SDS011;1442;47.448;8.582;2022-07-05T14:00:02;6.07;;;1.63;;
2868;SDS011;1442;47.448;8.582;2022-07-05T14:02:29;9.77;;;2.65;;
2868;SDS011;1442;47.448;8.582;2022-07-05T14:04:56;3.53;;;1.90;;
2868;SDS011;1442;47.448;8.582;2022-07-05T14:07:23;5.97;;;1.40;;
2868;SDS011;1442;47.448;8.582;2022-07-05T14:09:50;3.10;;;1.60;;
2868;SDS011;1442;47.448;8.582;2022-07-05T14:12:17;5.07;;;1.95;;
2868;SDS011;1442;47.448;8.582;2022-07-05T14:14:44;7.15;;;1.95;;
2868;SDS011;1442;47.448;8.582;2022-07-05T14:17:13;6.13;;;1.50;;
2868;SDS011;1442;47.448;8.582;2022-07-05T14:19:40;2.00;;;1.20;;
2868;SDS011;1442;47.448;8.582;2022-07-05T14:22:07;3.70;;;1.75;;
2868;SDS011;1442;47.448;8.582;2022-07-05T14:24:34;2.60;;;1.50;;
2868;SDS011;1442;47.448;8.582;2022-07-05T14:27:01;5.10;;;1.35;;
2868;SDS011;1442;47.448;8.582;2022-07-05T14:29:32;3.10;;;1.42;;
2868;SDS011;1442;47.448;8.582;2022-07-05T14:31:59;4.35;;;1.48;;
2868;SDS011;1442;47.448;8.582;2022-07-05T14:34:27;4.15;;;1.77;;
2868;SDS011;1442;47.448;8.582;2022-07-05T14:36:54;1.48;;;1.30;;
2868;SDS011;1442;47.448;8.582;2022-07-05T14:39:21;6.80;;;1.48;;
2868;SDS011;1442;47.448;8.582;2022-07-05T14:41:48;2.15;;;1.27;;
2868;SDS011;1442;47.448;8.582;2022-07-05T14:44:16;3.95;;;1.27;;
2868;SDS011;1442;47.448;8.582;2022-07-05T14:46:43;3.95;;;1.45;;
2868;SDS011;1442;47.448;8.582;2022-07-05T14:49:10;4.25;;;1.50;;
2868;SDS011;1442;47.448;8.582;2022-07-05T14:51:38;9.25;;;2.33;;
2868;SDS011;1442;47.448;8.582;2022-07-05T14:54:05;6.50;;;1.35;;
2868;SDS011;1442;47.448;8.582;2022-07-05T14:56:32;6.82;;;1.17;;
2868;SDS011;1442;47.448;8.582;2022-07-05T14:58:59;2.67;;;1.45;;
2868;SDS011;1442;47.448;8.582;2022-07-05T15:01:26;7.40;;;1.40;;
2868;SDS011;1442;47.448;8.582;2022-07-05T15:03:53;2.05;;;1.30;;
2868;SDS011;1442;47.448;8.582;2022-07-05T15:06:20;2.78;;;1.40;;
2868;SDS011;1442;47.448;8.582;2022-07-05T15:08:49;7.78;;;1.80;;
2868;SDS011;1442;47.448;8.582;2022-07-05T15:11:16;2.83;;;1.63;;
2868;SDS011;1442;47.448;8.582;2022-07-05T15:13:43;1.63;;;1.13;;
2868;SDS011;1442;47.448;8.582;2022-07-05T15:16:10;3.05;;;1.45;;
2868;SDS011;1442;47.448;8.582;2022-07-05T15:18:37;1.33;;;1.23;;
2868;SDS011;1442;47.448;8.582;2022-07-05T15:21:05;4.78;;;1.30;;
2868;SDS011;1442;47.448;8.582;2022-07-05T15:23:32;3.05;;;1.13;;
2868;SDS011;1442;47.448;8.582;2022-07-05T15:26:01;4.53;;;1.40;;
2868;SDS011;1442;47.448;8.582;2022-07-05T15:28:28;3.78;;;1.23;;
2868;SDS011;1442;47.448;8.582;2022-07-05T15:30:55;1.38;;;1.10;;